createdAt,value
2022-08-17T00:00:43.645Z,44.45
2022-08-17T00:03:20.779Z,54.78
2022-08-17T00:05:55.635Z,47.20
2022-08-17T00:08:30.754Z,48.03
2022-08-17T00:10:59.711Z,44.85
2022-08-17T00:13:27.727Z,43.75
2022-08-17T00:16:08.830Z,44.67
2022-08-17T00:19:01.979Z,53.55
2022-08-17T00:21:25.588Z,43.15
2022-08-17T00:23:54.883Z,48.92
2022-08-17T00:26:44.855Z,43.72
2022-08-17T00:29:19.385Z,45.65
2022-08-17T00:31:48.044Z,47.58
2022-08-17T00:34:16.444Z,45.47
2022-08-17T00:36:44.158Z,46.20
2022-08-17T00:39:11.913Z,46.30
2022-08-17T00:41:42.170Z,41.97
2022-08-17T00:44:12.288Z,41.78
2022-08-17T00:46:44.043Z,43.33
2022-08-17T00:49:14.390Z,44.88
2022-08-17T00:51:44.642Z,40.70
2022-08-17T00:54:27.210Z,43.15
2022-08-17T00:57:00.770Z,43.92
2022-08-17T00:59:40.016Z,39.65
2022-08-17T01:02:12.621Z,38.50
2022-08-17T01:04:42.476Z,38.67
2022-08-17T01:07:12.197Z,40.28
2022-08-17T01:09:41.515Z,42.88
2022-08-17T01:12:10.815Z,40.13
2022-08-17T01:14:39.847Z,42.33
2022-08-17T01:17:09.335Z,42.28
2022-08-17T01:19:42.080Z,40.65
2022-08-17T01:22:12.938Z,45.33
2022-08-17T01:24:57.620Z,41.47
2022-08-17T01:27:27.445Z,41.28
2022-08-17T01:30:00.265Z,47.95
2022-08-17T01:32:30.486Z,40.33
2022-08-17T01:34:58.974Z,43.53
2022-08-17T01:37:35.375Z,40.10
2022-08-17T01:40:13.077Z,45.58
2022-08-17T01:43:11.433Z,44.90
2022-08-17T01:45:46.347Z,45.20
2022-08-17T01:48:14.495Z,44.75
2022-08-17T01:50:44.582Z,43.20
2022-08-17T01:53:36.837Z,47.60
2022-08-17T01:56:12.175Z,47.38
2022-08-17T01:58:42.944Z,44.90
2022-08-17T02:01:14.268Z,43.50
2022-08-17T02:03:56.304Z,40.05
2022-08-17T02:06:47.115Z,44.20
2022-08-17T02:09:29.914Z,41.05
2022-08-17T02:12:47.437Z,39.47
2022-08-17T02:14:48.306Z,41.85
2022-08-17T02:17:16.518Z,41.92
2022-08-17T02:19:44.300Z,43.85
2022-08-17T02:22:12.271Z,39.83
2022-08-17T02:24:58.256Z,37.95
2022-08-17T02:27:28.663Z,38.45
2022-08-17T02:29:57.669Z,39.63
2022-08-17T02:32:27.871Z,39.88
2022-08-17T02:34:58.137Z,40.42
2022-08-17T02:37:27.943Z,40.78
2022-08-17T02:39:59.588Z,40.83
2022-08-17T02:42:34.137Z,43.65
2022-08-17T02:45:05.242Z,43.13
2022-08-17T02:47:34.046Z,41.22
2022-08-17T02:50:02.115Z,48.28
2022-08-17T02:52:42.797Z,42.25
2022-08-17T02:55:20.966Z,45.28
2022-08-17T02:57:49.399Z,40.45
2022-08-17T03:00:28.930Z,41.00
2022-08-17T03:02:57.979Z,41.58
2022-08-17T03:05:30.856Z,40.20
2022-08-17T03:07:58.769Z,41.75
2022-08-17T03:10:27.278Z,44.47
2022-08-17T03:12:55.813Z,40.00
2022-08-17T03:15:30.519Z,39.25
2022-08-17T03:18:00.385Z,38.60
2022-08-17T03:20:30.700Z,35.38
2022-08-17T03:23:03.004Z,36.33
2022-08-17T03:25:38.028Z,39.20
2022-08-17T03:28:07.455Z,37.92
2022-08-17T03:30:36.876Z,36.15
2022-08-17T03:33:07.213Z,35.15
2022-08-17T03:35:37.732Z,40.40
2022-08-17T03:38:07.497Z,38.75
2022-08-17T03:40:58.908Z,40.22
2022-08-17T03:43:24.063Z,41.22
2022-08-17T03:46:33.899Z,38.13
2022-08-17T03:49:17.777Z,36.97
2022-08-17T03:52:04.227Z,38.47
2022-08-17T03:54:51.009Z,37.55
2022-08-17T03:57:19.353Z,46.00
2022-08-17T03:59:47.891Z,41.47
2022-08-17T04:02:33.248Z,41.25
2022-08-17T04:05:01.868Z,45.83
2022-08-17T04:07:31.047Z,46.20
2022-08-17T04:09:59.562Z,40.88
2022-08-17T04:12:31.217Z,37.55
2022-08-17T04:14:59.543Z,40.22
2022-08-17T04:17:29.394Z,46.85
2022-08-17T04:19:58.102Z,45.72
2022-08-17T04:22:31.454Z,39.20
2022-08-17T04:25:09.928Z,43.20
2022-08-17T04:27:37.816Z,41.63
2022-08-17T04:30:07.495Z,41.90
2022-08-17T04:33:19.197Z,38.92
2022-08-17T04:35:47.732Z,40.30
2022-08-17T04:38:18.792Z,38.88
2022-08-17T04:41:05.939Z,37.38
2022-08-17T04:43:35.270Z,39.13
2022-08-17T04:46:09.098Z,33.42
2022-08-17T04:48:42.832Z,36.30
2022-08-17T04:51:19.963Z,32.10
2022-08-17T04:53:54.894Z,30.33
2022-08-17T04:56:25.969Z,35.90
2022-08-17T04:58:56.644Z,32.10
2022-08-17T05:01:28.119Z,30.38
2022-08-17T05:04:02.357Z,27.80
2022-08-17T05:06:50.332Z,35.03
2022-08-17T05:09:19.075Z,35.15
2022-08-17T05:11:47.057Z,33.15
2022-08-17T05:14:15.145Z,32.80
2022-08-17T05:16:43.178Z,29.73
2022-08-17T05:19:11.008Z,30.17
2022-08-17T05:21:39.130Z,27.40
2022-08-17T05:24:07.192Z,31.77
2022-08-17T05:26:55.105Z,27.58
2022-08-17T05:29:23.247Z,29.65
2022-08-17T05:32:38.322Z,22.60
2022-08-17T05:35:00.533Z,23.85
2022-08-17T05:37:29.156Z,24.73
2022-08-17T05:39:57.231Z,23.48
2022-08-17T05:42:25.218Z,24.40
2022-08-17T05:44:56.681Z,32.95
2022-08-17T05:47:26.927Z,23.52
2022-08-17T05:49:55.624Z,23.55
2022-08-17T05:52:44.853Z,22.95
2022-08-17T05:55:50.756Z,22.55
2022-08-17T05:58:39.006Z,18.92
2022-08-17T06:01:20.955Z,19.45
2022-08-17T06:03:48.810Z,24.35
2022-08-17T06:06:40.719Z,21.33
2022-08-17T06:09:33.022Z,17.33
2022-08-17T06:12:07.763Z,24.02
2022-08-17T06:15:03.906Z,24.15
2022-08-17T06:17:33.204Z,20.92
2022-08-17T06:20:14.767Z,24.73
2022-08-17T06:22:50.691Z,17.48
2022-08-17T06:25:33.788Z,18.17
2022-08-17T06:28:14.770Z,19.67
2022-08-17T06:30:59.743Z,17.65
2022-08-17T06:33:38.477Z,16.52
2022-08-17T06:36:15.943Z,15.80
2022-08-17T06:38:57.327Z,15.70
2022-08-17T06:41:45.703Z,15.38
2022-08-17T06:44:50.249Z,12.32
2022-08-17T06:47:28.766Z,17.45
2022-08-17T06:50:22.156Z,14.32
2022-08-17T06:53:01.642Z,16.42
2022-08-17T06:55:38.422Z,12.98
2022-08-17T06:58:16.492Z,11.25
2022-08-17T07:00:47.732Z,14.30
2022-08-17T07:03:47.968Z,12.77
2022-08-17T07:06:19.954Z,14.30
2022-08-17T07:08:56.589Z,13.77
2022-08-17T07:11:48.163Z,16.40
2022-08-17T07:14:24.624Z,15.68
2022-08-17T07:16:56.244Z,10.50
2022-08-17T07:19:31.869Z,13.10
2022-08-17T07:22:11.470Z,13.00
2022-08-17T07:24:45.231Z,15.23
2022-08-17T07:30:00.916Z,12.45
2022-08-17T07:32:46.434Z,12.18
2022-08-17T07:35:37.942Z,10.60
2022-08-17T07:38:26.918Z,10.40
2022-08-17T07:40:58.122Z,14.82
2022-08-17T07:43:39.370Z,10.85
2022-08-17T07:46:35.335Z,13.40
2022-08-17T07:49:03.667Z,12.43
2022-08-17T07:51:39.328Z,11.73
2022-08-17T07:54:16.770Z,9.65
2022-08-17T07:57:13.349Z,10.98
2022-08-17T08:00:16.132Z,13.20
2022-08-17T08:02:47.802Z,12.40
2022-08-17T08:05:49.276Z,13.18
2022-08-17T08:08:25.487Z,11.95
2022-08-17T08:11:27.978Z,12.05
2022-08-17T08:13:58.522Z,15.23
2022-08-17T08:16:29.817Z,12.57
2022-08-17T08:19:00.534Z,12.25
2022-08-17T08:21:42.204Z,12.38
2022-08-17T08:24:10.945Z,13.48
2022-08-17T08:26:50.202Z,9.93
2022-08-17T08:29:46.279Z,10.00
2022-08-17T08:32:42.914Z,15.30
2022-08-17T08:35:26.827Z,14.48
2022-08-17T08:38:20.194Z,10.00
2022-08-17T08:41:25.494Z,14.35
2022-08-17T08:44:05.031Z,12.45
2022-08-17T08:46:58.654Z,14.18
2022-08-17T08:52:48.401Z,11.95
2022-08-17T08:55:34.470Z,14.65
2022-08-17T08:58:32.289Z,15.45
2022-08-17T09:01:25.473Z,16.45
2022-08-17T09:04:25.824Z,11.18
2022-08-17T09:07:15.548Z,13.65
2022-08-17T09:09:59.206Z,16.98
2022-08-17T09:12:44.401Z,14.68
2022-08-17T09:15:22.166Z,12.88
2022-08-17T09:19:01.090Z,10.23
2022-08-17T09:21:34.817Z,12.18
2022-08-17T09:24:12.829Z,10.20
2022-08-17T09:26:51.305Z,11.25
2022-08-17T09:29:24.442Z,15.43
2022-08-17T09:32:03.740Z,14.48
2022-08-17T09:34:48.355Z,9.90
2022-08-17T09:37:46.867Z,10.02
2022-08-17T09:40:44.090Z,10.60
2022-08-17T09:43:41.203Z,14.38
2022-08-17T09:46:34.297Z,11.43
2022-08-17T09:49:23.159Z,12.40
2022-08-17T09:52:03.310Z,11.07
2022-08-17T09:54:38.977Z,11.05
2022-08-17T09:57:30.184Z,13.95
2022-08-17T10:00:16.782Z,13.48
2022-08-17T10:02:56.961Z,12.63
2022-08-17T10:06:21.623Z,13.40
2022-08-17T10:09:13.689Z,11.90
2022-08-17T10:12:23.025Z,13.15
2022-08-17T10:15:09.838Z,12.63
2022-08-17T10:17:46.953Z,12.00
2022-08-17T10:20:30.905Z,11.88
2022-08-17T10:23:46.648Z,16.35
2022-08-17T10:26:25.035Z,13.38
2022-08-17T10:29:06.787Z,16.60
2022-08-17T10:31:42.652Z,12.93
2022-08-17T10:34:25.374Z,12.98
2022-08-17T10:37:15.140Z,15.05
2022-08-17T10:39:54.725Z,13.80
2022-08-17T10:42:32.799Z,11.55
2022-08-17T10:45:28.172Z,11.95
2022-08-17T10:48:06.245Z,11.73
2022-08-17T10:50:57.744Z,11.55
2022-08-17T10:53:40.764Z,11.63
2022-08-17T10:56:14.695Z,14.45
2022-08-17T10:58:59.195Z,11.73
2022-08-17T11:01:32.319Z,10.93
2022-08-17T11:04:17.679Z,11.90
2022-08-17T11:07:41.584Z,15.45
2022-08-17T11:10:54.804Z,17.83
2022-08-17T11:14:06.890Z,15.70
2022-08-17T11:16:53.743Z,13.70
2022-08-17T11:19:39.468Z,13.27
2022-08-17T11:22:29.971Z,14.65
2022-08-17T11:25:20.361Z,13.30
2022-08-17T11:28:04.375Z,14.55
2022-08-17T11:30:47.045Z,10.88
2022-08-17T11:33:36.855Z,11.15
2022-08-17T11:36:14.540Z,16.48
2022-08-17T11:39:13.256Z,12.63
2022-08-17T11:42:05.916Z,10.82
2022-08-17T11:44:52.796Z,14.73
2022-08-17T11:48:27.983Z,13.23
2022-08-17T11:51:18.027Z,15.60
2022-08-17T11:53:46.069Z,16.88
2022-08-17T11:56:34.787Z,14.90
2022-08-17T11:59:23.149Z,12.93
2022-08-17T12:01:55.840Z,12.70
2022-08-17T12:04:30.603Z,15.98
2022-08-17T12:07:17.742Z,11.90
2022-08-17T12:09:50.960Z,16.63
2022-08-17T12:12:33.011Z,13.82
2022-08-17T12:15:10.497Z,16.77
2022-08-17T12:17:42.647Z,16.85
2022-08-17T12:20:23.482Z,12.90
2022-08-17T12:22:56.589Z,13.77
2022-08-17T12:25:51.450Z,20.37
2022-08-17T12:28:33.268Z,13.20
2022-08-17T12:31:07.273Z,13.68
2022-08-17T12:33:37.415Z,12.68
2022-08-17T12:36:08.703Z,12.45
2022-08-17T12:38:38.135Z,14.05
2022-08-17T12:41:26.598Z,16.27
2022-08-17T12:44:23.194Z,13.77
2022-08-17T12:46:59.760Z,11.52
2022-08-17T12:49:34.249Z,12.32
2022-08-17T12:52:23.681Z,11.82
2022-08-17T12:55:25.582Z,15.55
2022-08-17T12:58:01.846Z,11.35
2022-08-17T13:00:34.783Z,19.83
2022-08-17T13:03:13.225Z,14.50
2022-08-17T13:06:03.251Z,19.88
2022-08-17T13:08:36.646Z,13.00
2022-08-17T13:11:29.511Z,13.48
2022-08-17T13:14:08.347Z,14.82
2022-08-17T13:16:36.394Z,13.45
2022-08-17T13:19:12.818Z,16.30
2022-08-17T13:22:04.343Z,11.40
2022-08-17T13:24:38.572Z,13.45
2022-08-17T13:27:11.819Z,18.55
2022-08-17T13:29:45.343Z,18.37
2022-08-17T13:32:43.967Z,15.57
2022-08-17T13:35:39.839Z,14.73
2022-08-17T13:38:15.470Z,11.88
2022-08-17T13:40:53.163Z,13.93
2022-08-17T13:43:45.061Z,14.15
2022-08-17T13:46:19.708Z,13.25
2022-08-17T13:49:09.529Z,13.02
2022-08-17T13:51:44.640Z,13.70
2022-08-17T13:54:40.099Z,11.50
2022-08-17T13:57:23.285Z,20.50
2022-08-17T14:00:05.958Z,11.70
2022-08-17T14:02:35.936Z,13.05
2022-08-17T14:05:06.388Z,16.58
2022-08-17T14:07:39.928Z,15.40
2022-08-17T14:10:17.438Z,15.57
2022-08-17T14:12:45.819Z,16.00
2022-08-17T14:15:16.448Z,16.35
2022-08-17T14:17:44.192Z,15.93
2022-08-17T14:20:13.441Z,13.25
2022-08-17T14:22:46.370Z,13.95
2022-08-17T14:25:19.607Z,15.88
2022-08-17T14:27:53.564Z,11.60
2022-08-17T14:30:29.889Z,17.88
2022-08-17T14:32:58.784Z,13.82
2022-08-17T14:35:28.855Z,14.43
2022-08-17T14:37:57.189Z,14.25
2022-08-17T14:40:25.806Z,13.55
2022-08-17T14:42:55.483Z,19.15
2022-08-17T14:45:30.336Z,14.95
2022-08-17T14:48:07.721Z,13.80
2022-08-17T14:50:38.834Z,16.27
2022-08-17T14:53:08.774Z,14.02
2022-08-17T14:55:39.942Z,13.30
2022-08-17T14:58:09.105Z,14.63
2022-08-17T15:00:37.832Z,13.60
2022-08-17T15:03:05.638Z,14.05
2022-08-17T15:05:36.611Z,15.57
2022-08-17T15:08:05.896Z,15.45
2022-08-17T15:10:35.505Z,11.32
2022-08-17T15:13:03.334Z,16.55
2022-08-17T15:15:31.531Z,13.38
2022-08-17T15:18:00.063Z,11.57
2022-08-17T15:20:29.831Z,11.70
2022-08-17T15:22:59.056Z,15.45
2022-08-17T15:25:29.411Z,18.52
2022-08-17T15:27:57.269Z,13.00
2022-08-17T15:30:26.555Z,15.02
2022-08-17T15:32:57.428Z,17.00
2022-08-17T15:35:29.081Z,14.88
2022-08-17T15:38:07.845Z,15.63
2022-08-17T15:40:45.139Z,15.45
2022-08-17T15:43:28.222Z,21.15
2022-08-17T15:46:12.564Z,19.60
2022-08-17T15:48:42.444Z,17.08
2022-08-17T15:51:23.383Z,18.63
2022-08-17T15:53:57.214Z,20.42
2022-08-17T15:56:26.126Z,18.13
2022-08-17T15:58:55.228Z,18.55
2022-08-17T16:02:14.269Z,18.58
2022-08-17T16:04:26.958Z,21.70
2022-08-17T16:07:00.028Z,15.98
2022-08-17T16:09:28.553Z,19.15
2022-08-17T16:11:56.643Z,16.48
2022-08-17T16:14:32.423Z,19.77
2022-08-17T16:17:04.596Z,21.42
2022-08-17T16:19:34.279Z,20.33
2022-08-17T16:22:02.596Z,22.42
2022-08-17T16:24:31.370Z,17.65
2022-08-17T16:26:59.123Z,16.85
2022-08-17T16:29:26.815Z,19.83
2022-08-17T16:31:54.934Z,18.98
2022-08-17T16:34:22.705Z,19.38
2022-08-17T16:36:55.167Z,24.05
2022-08-17T16:39:27.177Z,19.23
2022-08-17T16:41:56.096Z,17.08
2022-08-17T16:44:25.839Z,22.80
2022-08-17T16:46:53.776Z,19.75
2022-08-17T16:49:31.539Z,18.70
2022-08-17T16:52:10.399Z,23.65
2022-08-17T16:54:43.832Z,24.30
2022-08-17T16:57:13.355Z,22.58
2022-08-17T16:59:44.928Z,16.88
2022-08-17T17:02:23.621Z,16.67
2022-08-17T17:05:16.062Z,19.33
2022-08-17T17:08:03.345Z,17.58
2022-08-17T17:10:38.745Z,16.80
2022-08-17T17:13:17.108Z,20.13
2022-08-17T17:15:44.788Z,21.92
2022-08-17T17:18:14.840Z,24.70
2022-08-17T17:20:54.806Z,22.95
2022-08-17T17:23:44.821Z,21.38
2022-08-17T17:26:49.290Z,22.15
2022-08-17T17:29:26.744Z,24.13
2022-08-17T17:32:17.283Z,25.35
2022-08-17T17:34:50.911Z,26.00
2022-08-17T17:37:26.159Z,20.02
2022-08-17T17:39:59.841Z,19.17
2022-08-17T17:42:31.496Z,30.02
2022-08-17T17:45:08.715Z,24.55
2022-08-17T17:47:36.656Z,22.20
2022-08-17T17:50:06.425Z,25.48
2022-08-17T17:52:47.415Z,20.58
2022-08-17T17:55:43.406Z,29.98
2022-08-17T17:58:32.044Z,28.40
2022-08-17T18:01:24.578Z,21.75
2022-08-17T18:04:20.634Z,28.23
2022-08-17T18:06:51.965Z,23.08
2022-08-17T18:09:51.937Z,23.83
2022-08-17T18:12:37.228Z,27.77
2022-08-17T18:15:13.727Z,30.40
2022-08-17T18:18:02.886Z,31.27
2022-08-17T18:20:43.209Z,28.13
2022-08-17T18:23:23.165Z,29.95
2022-08-17T18:25:56.612Z,30.45
2022-08-17T18:28:26.780Z,27.52
2022-08-17T18:31:20.077Z,30.60
2022-08-17T18:34:45.518Z,32.08
2022-08-17T18:37:05.198Z,33.55
2022-08-17T18:39:33.821Z,26.38
2022-08-17T18:42:03.860Z,38.08
2022-08-17T18:44:43.966Z,33.65
2022-08-17T18:47:14.647Z,34.55
2022-08-17T18:50:10.824Z,33.10
2022-08-17T18:52:38.747Z,33.78
2022-08-17T18:55:08.482Z,33.47
2022-08-17T18:58:07.662Z,34.38
2022-08-17T19:00:38.298Z,34.13
2022-08-17T19:03:18.045Z,36.05
2022-08-17T19:05:52.369Z,40.88
2022-08-17T19:08:20.239Z,32.97
2022-08-17T19:10:58.415Z,37.30
2022-08-17T19:13:35.436Z,35.08
2022-08-17T19:16:17.716Z,36.85
2022-08-17T19:18:53.833Z,34.08
2022-08-17T19:21:34.441Z,37.55
2022-08-17T19:24:11.714Z,34.33
2022-08-17T19:26:55.457Z,38.17
2022-08-17T19:29:51.805Z,37.75
2022-08-17T19:32:26.287Z,34.28
2022-08-17T19:34:55.105Z,35.97
2022-08-17T19:37:44.742Z,39.85
2022-08-17T19:43:50.487Z,38.92
2022-08-17T19:46:26.170Z,39.25
2022-08-17T19:49:08.543Z,36.63
2022-08-17T19:52:22.439Z,43.03
2022-08-17T19:55:31.554Z,36.85
2022-08-17T19:58:19.175Z,38.97
2022-08-17T20:00:53.497Z,36.90
2022-08-17T20:03:35.075Z,40.63
2022-08-17T20:06:13.029Z,42.00
2022-08-17T20:09:14.650Z,37.97
2022-08-17T20:11:49.227Z,46.75
2022-08-17T20:14:36.289Z,38.60
2022-08-17T20:17:05.847Z,39.75
2022-08-17T20:19:53.334Z,40.88
2022-08-17T20:22:52.486Z,40.97
2022-08-17T20:25:32.420Z,42.22
2022-08-17T20:28:27.877Z,39.05
2022-08-17T20:30:56.275Z,41.65
2022-08-17T20:33:25.860Z,44.60
2022-08-17T20:36:22.717Z,41.55
2022-08-17T20:38:57.347Z,39.47
2022-08-17T20:41:27.933Z,40.33
2022-08-17T20:43:59.231Z,44.28
2022-08-17T20:46:29.773Z,47.05
2022-08-17T20:49:24.330Z,41.78
2022-08-17T20:52:02.420Z,45.05
2022-08-17T20:54:42.796Z,44.90
2022-08-17T20:57:31.412Z,45.95
2022-08-17T21:00:34.137Z,48.40
2022-08-17T21:03:50.612Z,46.75
2022-08-17T21:06:22.567Z,46.33
2022-08-17T21:08:55.457Z,45.35
2022-08-17T21:12:02.640Z,43.73
2022-08-17T21:14:22.057Z,44.65
2022-08-17T21:17:12.160Z,40.58
2022-08-17T21:20:10.327Z,46.10
2022-08-17T21:23:20.429Z,41.50
2022-08-17T21:25:58.347Z,43.95
2022-08-17T21:29:00.819Z,38.63
2022-08-17T21:31:29.246Z,43.08
2022-08-17T21:34:16.232Z,38.85
2022-08-17T21:36:45.835Z,39.35
2022-08-17T21:39:16.428Z,39.95
2022-08-17T21:41:55.749Z,42.55
2022-08-17T21:44:35.177Z,42.28
2022-08-17T21:47:32.356Z,41.88
2022-08-17T21:50:17.642Z,36.85
2022-08-17T21:52:46.017Z,41.47
2022-08-17T21:55:28.324Z,37.53
2022-08-17T21:58:13.955Z,42.28
2022-08-17T22:00:44.734Z,42.13
2022-08-17T22:03:25.951Z,43.58
2022-08-17T22:05:53.968Z,37.63
2022-08-17T22:08:24.323Z,38.47
2022-08-17T22:11:00.151Z,39.20
2022-08-17T22:13:29.721Z,41.65
2022-08-17T22:16:15.323Z,42.70
2022-08-17T22:18:58.985Z,38.45
2022-08-17T22:21:27.473Z,43.67
2022-08-17T22:24:18.011Z,45.20
2022-08-17T22:27:05.087Z,40.50
2022-08-17T22:29:58.469Z,39.72
2022-08-17T22:32:41.487Z,43.78
2022-08-17T22:35:34.708Z,41.35
2022-08-17T22:38:21.195Z,42.75
2022-08-17T22:41:34.693Z,39.85
2022-08-17T22:44:17.752Z,40.40
2022-08-17T22:46:55.358Z,45.05
2022-08-17T22:49:53.904Z,41.60
2022-08-17T22:52:33.430Z,44.25
2022-08-17T22:55:40.970Z,46.67
2022-08-17T22:58:33.961Z,44.97
2022-08-17T23:01:23.597Z,50.10
2022-08-17T23:04:06.321Z,42.65
2022-08-17T23:06:37.901Z,51.28
2022-08-17T23:09:06.967Z,46.50
2022-08-17T23:11:58.675Z,45.25
2022-08-17T23:14:31.730Z,47.35
2022-08-17T23:17:00.909Z,54.75
2022-08-17T23:19:32.068Z,47.72
2022-08-17T23:22:01.845Z,56.08
2022-08-17T23:24:33.135Z,53.25
2022-08-17T23:27:00.793Z,48.28
2022-08-17T23:29:29.618Z,48.47
2022-08-17T23:32:00.102Z,49.55
2022-08-17T23:34:29.007Z,53.83
2022-08-17T23:36:57.425Z,52.28
2022-08-17T23:39:27.966Z,48.78
2022-08-17T23:42:01.026Z,47.42
2022-08-17T23:44:31.033Z,49.40
2022-08-17T23:46:58.822Z,47.80
2022-08-17T23:49:26.589Z,53.17
2022-08-17T23:51:55.242Z,53.00
2022-08-17T23:54:46.508Z,48.95
2022-08-17T23:57:19.458Z,50.83
2022-08-17T23:59:47.269Z,55.35
